Pagrindinis puslapis
METAR-TAF:

METAR-TAF

Oro uostai :

Kupangas, Indonezija

platuma: 10-10-17S, ilguma: 123-40-16E, Aukštis: 102 m

Dabartinis oras

Ataskaita buvo paskelbta 25 minutes, ne 00:30 UTC
Vėjas 7 kt iš Rytų/Pietryčių
Temperatūra 27°C
Drėgmė 89%
Slėgis 1008 hPa
Matomumas 10 km arba daugiau
Išsisklaidę debesys ne aukštis 1600 ft

METAR: WATT 270030Z 12007KT 9999 SCT016 27/25 Q1008 NOSIG

Laikas: 07:55 (00:55 UTC)

Prognozė

Ataskaita buvo paskelbta 1 valandą ir 55 minutes, ne 23:00 UTC
Prognozė galioja nuo 27 metu 00 UTC su 27 metu 24 UTC
Vėjas 5 kt iš Rytų
Matomumas: 8000 m
Su prošvaistėmis ne aukštis 1400 ft
Laikinai
nuo 27 metu 00 UTC su 27 metu 04 UTC
Vėjas 12 kt iš Vakarų/Šiaurės Vakarų
Matomumas: 3000 m
Mažai debesys ne aukštis 1400 ft, Liūtiniai kamuoliniai debesys.
perkūnija, lietus
Tikimybė 40% :
Laikinai
nuo 27 metu 06 UTC su 27 metu 10 UTC
Matomumas: 4000 m
lietus

TAF: WATT 262300Z 2700/2724 10005KT 8000 BKN014 TEMPO 2700/2704 30012KT 3000 TSRA FEW014CB PROB40 TEMPO 2706/2710 4000 RA

Orai ataskaitas ir orų prognozės (METAR, TAF).

turimą stotys yra geltonos ir raudonos taškus žemėlapyje.

Perkelti pele per norėdami pamatyti stoties vardą.

Tada spustelėkite, norėdami matyti oro stebėjimo ir prognozės.

Norėdami pakeisti žemėlapį: spustelėkite ant žalios mygtukų su juodo kryžiaus žemyn,; žalią mygtuką su brūkšneliu, jei norite nutolinti; arba žalių rodyklių gretimoms žemėlapius.


METAR-TAF: